createdAt,value
2023-05-02T00:01:53.950Z,14.20
2023-05-02T00:03:58.809Z,14.20
2023-05-02T00:06:02.039Z,14.10
2023-05-02T00:08:04.939Z,14.30
2023-05-02T00:10:08.505Z,14.20
2023-05-02T00:12:11.238Z,14.20
2023-05-02T00:14:14.028Z,14.10
2023-05-02T00:16:18.142Z,13.90
2023-05-02T00:18:20.931Z,14.00
2023-05-02T00:20:25.600Z,13.80
2023-05-02T00:22:28.355Z,13.70
2023-05-02T00:24:31.109Z,13.80
2023-05-02T00:26:33.953Z,14.00
2023-05-02T00:28:36.755Z,14.00
2023-05-02T00:30:44.189Z,14.00
2023-05-02T00:32:46.994Z,13.90
2023-05-02T00:34:49.704Z,14.00
2023-05-02T00:36:53.763Z,14.10
2023-05-02T00:38:56.486Z,14.10
2023-05-02T00:40:59.179Z,13.80
2023-05-02T00:43:01.878Z,14.00
2023-05-02T00:45:06.410Z,13.90
2023-05-02T00:47:09.511Z,13.90
2023-05-02T00:49:15.116Z,13.70
2023-05-02T00:51:18.362Z,13.70
2023-05-02T00:53:22.965Z,13.60
2023-05-02T00:55:25.888Z,13.70
2023-05-02T00:57:28.605Z,13.80
2023-05-02T00:59:31.562Z,13.40
2023-05-02T01:01:41.022Z,13.70
2023-05-02T01:03:53.153Z,13.90
2023-05-02T01:06:07.682Z,14.20
2023-05-02T01:08:19.298Z,14.30
2023-05-02T01:10:33.988Z,14.40
2023-05-02T01:12:47.286Z,14.40
2023-05-02T01:14:54.892Z,14.30
2023-05-02T01:16:59.767Z,14.20
2023-05-02T01:19:06.839Z,14.20
2023-05-02T01:21:11.074Z,14.30
2023-05-02T01:23:24.110Z,14.30
2023-05-02T01:25:35.115Z,14.30
2023-05-02T01:27:48.734Z,14.20
2023-05-02T01:29:54.613Z,14.20
2023-05-02T01:31:59.052Z,14.20
2023-05-02T01:34:03.516Z,14.10
2023-05-02T01:36:08.356Z,14.20
2023-05-02T01:38:15.442Z,14.00
2023-05-02T01:40:22.540Z,13.80
2023-05-02T01:42:26.563Z,13.90
2023-05-02T01:44:31.344Z,13.80
2023-05-02T01:46:39.122Z,13.70
2023-05-02T01:48:45.640Z,13.90
2023-05-02T01:50:50.376Z,13.80
2023-05-02T01:52:54.700Z,13.80
2023-05-02T01:54:59.962Z,13.70
2023-05-02T01:57:06.167Z,13.70
2023-05-02T01:59:11.801Z,13.90
2023-05-02T02:01:15.824Z,14.00
2023-05-02T02:03:20.870Z,13.70
2023-05-02T02:05:25.430Z,13.70
2023-05-02T02:07:28.207Z,13.70
2023-05-02T02:09:31.414Z,13.50
2023-05-02T02:11:37.525Z,13.50
2023-05-02T02:13:46.246Z,13.60
2023-05-02T02:15:51.690Z,13.70
2023-05-02T02:18:01.179Z,13.70
2023-05-02T02:20:09.470Z,13.50
2023-05-02T02:22:14.542Z,13.60
2023-05-02T02:24:19.804Z,13.70
2023-05-02T02:26:23.515Z,13.80
2023-05-02T02:28:26.400Z,13.70
2023-05-02T02:30:29.509Z,13.80
2023-05-02T02:32:32.324Z,13.50
2023-05-02T02:34:35.205Z,13.70
2023-05-02T02:36:46.911Z,13.80
2023-05-02T02:38:58.094Z,13.80
2023-05-02T02:41:07.474Z,13.70
2023-05-02T02:43:18.116Z,13.80
2023-05-02T02:45:31.148Z,13.80
2023-05-02T02:47:43.191Z,13.90
2023-05-02T02:49:50.500Z,13.90
2023-05-02T02:52:03.734Z,13.80
2023-05-02T02:54:25.753Z,13.90
2023-05-02T02:56:36.130Z,14.00
2023-05-02T02:58:46.539Z,14.00
2023-05-02T03:00:50.734Z,14.20
2023-05-02T03:02:54.935Z,14.10
2023-05-02T03:04:58.803Z,14.20
2023-05-02T03:07:03.341Z,14.10
2023-05-02T03:09:06.142Z,14.10
2023-05-02T03:11:09.258Z,14.00
2023-05-02T03:13:12.133Z,14.00
2023-05-02T03:15:41.052Z,14.10
2023-05-02T03:17:43.902Z,14.20
2023-05-02T03:19:47.263Z,14.30
2023-05-02T03:21:50.095Z,14.10
2023-05-02T03:23:54.211Z,14.20
2023-05-02T03:25:57.135Z,14.20
2023-05-02T03:27:59.856Z,14.10
2023-05-02T03:30:02.792Z,13.80
2023-05-02T03:32:05.958Z,13.80
2023-05-02T03:34:08.796Z,13.90
2023-05-02T03:36:12.079Z,13.70
2023-05-02T03:38:14.854Z,13.80
2023-05-02T03:40:21.723Z,13.90
2023-05-02T03:42:25.519Z,14.00
2023-05-02T03:44:28.276Z,14.00
2023-05-02T03:46:31.314Z,14.10
2023-05-02T03:48:34.686Z,14.30
2023-05-02T03:50:37.444Z,14.10
2023-05-02T03:52:40.249Z,13.90
2023-05-02T03:54:43.762Z,13.80
2023-05-02T03:56:47.939Z,13.90
2023-05-02T03:58:50.736Z,13.90
2023-05-02T04:00:53.826Z,13.90
2023-05-02T04:02:56.642Z,13.90
2023-05-02T04:04:59.624Z,14.00
2023-05-02T04:07:02.431Z,14.00
2023-05-02T04:09:05.721Z,14.20
2023-05-02T04:11:08.445Z,13.90
2023-05-02T04:13:12.721Z,13.90
2023-05-02T04:15:15.576Z,13.80
2023-05-02T04:17:18.494Z,13.80
2023-05-02T04:19:21.435Z,13.80
2023-05-02T04:21:24.504Z,14.00
2023-05-02T04:23:27.358Z,14.10
2023-05-02T04:25:30.127Z,14.30
2023-05-02T04:27:32.874Z,14.40
2023-05-02T04:29:37.078Z,14.50
2023-05-02T04:31:40.389Z,14.70
2023-05-02T04:33:43.236Z,14.50
2023-05-02T04:35:46.237Z,14.50
2023-05-02T04:37:48.955Z,14.40
2023-05-02T04:39:51.725Z,14.50
2023-05-02T04:41:54.505Z,14.50
2023-05-02T04:43:57.251Z,14.40
2023-05-02T04:46:01.413Z,14.30
2023-05-02T04:48:04.584Z,14.30
2023-05-02T04:50:09.222Z,14.60
2023-05-02T04:52:12.331Z,14.60
2023-05-02T04:54:15.676Z,14.60
2023-05-02T04:56:18.435Z,14.70
2023-05-02T04:58:21.202Z,14.90
2023-05-02T05:00:24.314Z,14.90
2023-05-02T05:02:28.455Z,14.90
2023-05-02T05:04:31.542Z,14.90
2023-05-02T05:06:34.312Z,15.00
2023-05-02T05:08:37.073Z,15.20
2023-05-02T05:10:40.773Z,15.20
2023-05-02T05:12:43.579Z,15.40
2023-05-02T05:14:46.412Z,15.20
2023-05-02T05:16:49.236Z,15.20
2023-05-02T05:18:53.965Z,15.50
2023-05-02T05:20:56.838Z,15.70
2023-05-02T05:22:59.599Z,15.80
2023-05-02T05:25:02.510Z,15.70
2023-05-02T05:27:05.374Z,15.60
2023-05-02T05:29:08.881Z,15.80
2023-05-02T05:31:16.043Z,15.10
2023-05-02T05:33:19.536Z,14.70
2023-05-02T05:35:24.569Z,14.60
2023-05-02T05:37:27.313Z,14.90
2023-05-02T05:39:30.118Z,14.50
2023-05-02T05:41:33.460Z,14.60
2023-05-02T05:43:38.138Z,14.60
2023-05-02T05:45:41.174Z,14.60
2023-05-02T05:47:43.999Z,14.70
2023-05-02T05:49:46.797Z,14.60
2023-05-02T05:51:50.924Z,14.60
2023-05-02T05:53:56.277Z,14.70
2023-05-02T05:55:59.178Z,14.90
2023-05-02T05:58:01.984Z,14.70
2023-05-02T06:00:05.534Z,14.90
2023-05-02T06:02:08.417Z,14.90
2023-05-02T06:04:11.336Z,15.10
2023-05-02T06:06:14.226Z,15.00
2023-05-02T06:08:18.322Z,15.40
2023-05-02T06:10:21.152Z,15.50
2023-05-02T06:12:24.058Z,15.20
2023-05-02T06:14:26.849Z,15.10
2023-05-02T06:16:29.602Z,15.30
2023-05-02T06:18:32.383Z,15.40
2023-05-02T06:20:37.084Z,15.70
2023-05-02T06:22:40.603Z,15.30
2023-05-02T06:24:44.687Z,15.50
2023-05-02T06:26:47.471Z,15.50
2023-05-02T06:28:50.254Z,15.40
2023-05-02T06:30:58.504Z,15.30
2023-05-02T06:33:01.421Z,15.30
2023-05-02T06:35:04.675Z,15.30
2023-05-02T06:37:07.474Z,15.30
2023-05-02T06:39:10.272Z,15.50
2023-05-02T06:41:18.226Z,14.80
2023-05-02T06:43:21.700Z,15.30
2023-05-02T06:45:24.507Z,15.00
2023-05-02T06:47:28.324Z,15.30
2023-05-02T06:49:31.541Z,14.70
2023-05-02T06:51:34.270Z,14.70
2023-05-02T06:53:37.032Z,14.50
2023-05-02T06:55:39.832Z,14.40
2023-05-02T06:57:43.979Z,14.90
2023-05-02T06:59:46.696Z,15.20
2023-05-02T07:01:49.474Z,15.20
2023-05-02T07:03:52.352Z,15.10
2023-05-02T07:05:55.123Z,15.40
2023-05-02T07:07:57.858Z,15.40
2023-05-02T07:10:00.924Z,15.30
2023-05-02T07:12:06.756Z,15.50
2023-05-02T07:14:11.172Z,15.70
2023-05-02T07:16:14.368Z,15.50
2023-05-02T07:18:17.280Z,15.30
2023-05-02T07:20:20.454Z,15.70
2023-05-02T07:22:23.238Z,15.40
2023-05-02T07:24:26.323Z,15.80
2023-05-02T07:26:29.649Z,15.50
2023-05-02T07:28:34.507Z,15.50
2023-05-02T07:30:38.808Z,15.30
2023-05-02T07:32:41.552Z,15.20
2023-05-02T07:34:44.394Z,15.40
2023-05-02T07:36:47.124Z,15.40
2023-05-02T07:38:49.940Z,15.60
2023-05-02T07:40:52.689Z,15.60
2023-05-02T07:42:55.445Z,15.80
2023-05-02T07:44:59.126Z,15.90
2023-05-02T07:47:03.259Z,15.90
2023-05-02T07:49:06.090Z,16.00
2023-05-02T07:51:09.671Z,16.40
2023-05-02T07:53:12.530Z,16.10
2023-05-02T07:55:15.407Z,16.20
2023-05-02T07:57:18.217Z,16.30
2023-05-02T07:59:21.024Z,16.60
2023-05-02T08:01:23.754Z,15.80
2023-05-02T08:03:28.246Z,15.90
2023-05-02T08:05:31.255Z,16.10
2023-05-02T08:07:35.294Z,16.20
2023-05-02T08:09:38.001Z,16.40
2023-05-02T08:11:40.722Z,16.30
2023-05-02T08:13:43.517Z,16.00
2023-05-02T08:15:46.592Z,15.90
2023-05-02T08:17:49.400Z,16.10
2023-05-02T08:19:53.480Z,16.20
2023-05-02T08:21:56.237Z,16.10
2023-05-02T08:23:59.852Z,16.00
2023-05-02T08:26:02.662Z,15.90
2023-05-02T08:28:05.614Z,15.50
2023-05-02T08:30:09.525Z,15.30
2023-05-02T08:32:12.364Z,14.90
2023-05-02T08:34:15.405Z,14.80
2023-05-02T08:36:19.835Z,14.40
2023-05-02T08:38:22.593Z,14.60
2023-05-02T08:40:38.208Z,14.60
2023-05-02T08:42:44.941Z,14.70
2023-05-02T08:44:47.897Z,14.90
2023-05-02T08:46:52.003Z,15.10
2023-05-02T08:48:58.944Z,15.00
2023-05-02T08:51:02.808Z,15.30
2023-05-02T08:53:07.870Z,15.10
2023-05-02T08:55:12.005Z,15.60
2023-05-02T08:57:14.886Z,15.20
2023-05-02T08:59:17.631Z,15.40
2023-05-02T09:01:23.974Z,15.40
2023-05-02T09:03:31.561Z,15.50
2023-05-02T09:05:41.654Z,15.70
2023-05-02T09:07:47.321Z,15.90
2023-05-02T09:09:51.444Z,15.60
2023-05-02T09:11:54.378Z,15.00
2023-05-02T09:13:58.951Z,15.00
2023-05-02T09:16:03.458Z,14.30
2023-05-02T09:18:07.349Z,14.10
2023-05-02T09:20:11.999Z,14.40
2023-05-02T09:22:24.206Z,13.90
2023-05-02T09:24:27.241Z,13.90
2023-05-02T09:26:33.312Z,14.20
2023-05-02T09:28:41.005Z,13.90
2023-05-02T09:30:44.020Z,14.30
2023-05-02T09:32:47.320Z,14.40
2023-05-02T09:35:08.493Z,14.40
2023-05-02T09:37:11.468Z,14.70
2023-05-02T09:39:16.083Z,14.60
2023-05-02T09:41:19.970Z,13.90
2023-05-02T09:43:24.120Z,13.50
2023-05-02T09:45:27.566Z,13.20
2023-05-02T09:47:30.761Z,13.70
2023-05-02T09:49:41.730Z,13.50
2023-05-02T09:51:44.633Z,13.50
2023-05-02T09:53:48.255Z,13.90
2023-05-02T09:56:01.037Z,13.90
2023-05-02T09:58:04.088Z,13.60
2023-05-02T10:00:10.366Z,13.60
2023-05-02T10:02:13.486Z,13.30
2023-05-02T10:04:18.806Z,13.40
2023-05-02T10:06:22.687Z,13.80
2023-05-02T10:08:28.452Z,13.90
2023-05-02T10:10:33.878Z,13.90
2023-05-02T10:12:38.757Z,14.40
2023-05-02T10:14:42.369Z,14.30
2023-05-02T10:16:54.993Z,14.10
2023-05-02T10:19:03.769Z,14.00
2023-05-02T10:21:09.531Z,13.30
2023-05-02T10:23:13.291Z,13.60
2023-05-02T10:25:16.329Z,13.80
2023-05-02T10:27:19.533Z,13.50
2023-05-02T10:29:23.632Z,13.60
2023-05-02T10:31:27.186Z,13.60
2023-05-02T10:33:32.342Z,13.40
2023-05-02T10:35:37.265Z,13.50
2023-05-02T10:37:41.644Z,13.60
2023-05-02T10:39:44.470Z,13.80
2023-05-02T10:41:47.586Z,14.00
2023-05-02T10:43:50.939Z,14.00
2023-05-02T10:45:54.772Z,14.30
2023-05-02T10:48:19.073Z,14.30
2023-05-02T10:50:24.008Z,14.30
2023-05-02T10:52:27.574Z,14.40
2023-05-02T10:54:30.295Z,14.40
2023-05-02T10:56:33.199Z,14.40
2023-05-02T10:58:36.117Z,14.60
2023-05-02T11:00:39.035Z,13.90
2023-05-02T11:02:51.716Z,14.40
2023-05-02T11:05:03.094Z,14.00
2023-05-02T11:07:20.035Z,14.20
2023-05-02T11:09:34.066Z,14.50
2023-05-02T11:11:41.030Z,14.90
2023-05-02T11:13:50.278Z,15.20
2023-05-02T11:15:57.785Z,15.40
2023-05-02T11:18:01.353Z,15.60
2023-05-02T11:20:28.189Z,15.80
2023-05-02T11:22:35.449Z,16.00
2023-05-02T11:24:38.911Z,15.60
2023-05-02T11:26:41.640Z,15.30
2023-05-02T11:28:48.057Z,15.50
2023-05-02T11:30:51.119Z,16.10
2023-05-02T11:33:20.242Z,15.50
2023-05-02T11:35:24.571Z,15.80
2023-05-02T11:39:31.480Z,15.70
2023-05-02T11:41:40.591Z,15.30
2023-05-02T11:43:43.386Z,15.70
2023-05-02T11:45:46.371Z,16.20
2023-05-02T11:47:49.938Z,15.60
2023-05-02T11:49:52.751Z,15.40
2023-05-02T11:51:55.549Z,15.10
2023-05-02T11:53:58.351Z,15.20
2023-05-02T11:56:04.847Z,14.90
2023-05-02T11:58:13.811Z,15.30
2023-05-02T12:00:17.952Z,15.40
2023-05-02T12:02:21.228Z,15.50
2023-05-02T12:04:25.682Z,14.70
2023-05-02T12:06:28.513Z,15.10
2023-05-02T12:08:31.953Z,15.20
2023-05-02T12:10:38.474Z,14.90
2023-05-02T12:12:44.500Z,14.70
2023-05-02T12:14:47.330Z,14.80
2023-05-02T12:16:50.088Z,14.90
2023-05-02T12:18:53.184Z,15.20
2023-05-02T12:20:57.174Z,15.20
2023-05-02T12:23:00.081Z,15.40
2023-05-02T12:25:04.527Z,15.90
2023-05-02T12:27:12.012Z,15.30
2023-05-02T12:29:16.176Z,15.70
2023-05-02T12:31:19.704Z,15.20
2023-05-02T12:33:22.719Z,15.00
2023-05-02T12:35:25.930Z,15.00
2023-05-02T12:37:29.516Z,14.60
2023-05-02T12:39:39.376Z,14.60
2023-05-02T12:41:43.742Z,14.40
2023-05-02T12:43:48.250Z,14.70
2023-05-02T12:46:09.955Z,14.90
2023-05-02T12:48:20.409Z,14.80
2023-05-02T12:50:37.103Z,14.60
2023-05-02T12:52:50.514Z,14.80
2023-05-02T12:54:53.476Z,14.80
2023-05-02T12:56:56.238Z,15.00
2023-05-02T12:59:01.308Z,13.90
2023-05-02T13:01:05.685Z,14.20
2023-05-02T13:03:09.391Z,14.00
2023-05-02T13:05:15.866Z,14.10
2023-05-02T13:07:18.732Z,14.00
2023-05-02T13:09:21.516Z,14.20
2023-05-02T13:11:24.510Z,14.10
2023-05-02T13:13:27.320Z,14.40
2023-05-02T13:15:30.450Z,14.20
2023-05-02T13:17:35.198Z,14.30
2023-05-02T13:19:40.514Z,14.30
2023-05-02T13:21:47.263Z,13.80
2023-05-02T13:23:50.864Z,13.90
2023-05-02T13:25:53.615Z,14.00
2023-05-02T13:27:56.328Z,14.10
2023-05-02T13:29:59.330Z,14.00
2023-05-02T13:32:02.635Z,14.20
2023-05-02T13:34:06.964Z,14.10
2023-05-02T13:36:09.667Z,13.80
2023-05-02T13:38:12.693Z,13.70
2023-05-02T13:40:15.508Z,12.80
2023-05-02T13:42:18.287Z,13.50
2023-05-02T13:44:21.165Z,13.50
2023-05-02T13:46:24.129Z,13.30
2023-05-02T13:48:26.898Z,13.20
2023-05-02T13:50:31.053Z,13.10
2023-05-02T13:52:33.813Z,12.70
2023-05-02T13:54:36.552Z,13.00
2023-05-02T13:56:39.752Z,12.80
2023-05-02T13:58:42.756Z,12.70
2023-05-02T14:00:45.512Z,12.90
2023-05-02T14:02:48.620Z,12.80
2023-05-02T14:04:51.801Z,13.30
2023-05-02T14:06:55.941Z,13.10
2023-05-02T14:08:58.675Z,13.20
2023-05-02T14:11:01.528Z,12.70
2023-05-02T14:13:04.317Z,12.80
2023-05-02T14:15:08.219Z,12.90
2023-05-02T14:17:11.021Z,12.40
2023-05-02T14:19:13.991Z,12.70
2023-05-02T14:21:16.756Z,12.70
2023-05-02T14:23:20.840Z,13.10
2023-05-02T14:25:23.689Z,13.60
2023-05-02T14:27:26.798Z,13.50
2023-05-02T14:29:29.497Z,13.50
2023-05-02T14:31:32.321Z,13.40
2023-05-02T14:33:35.081Z,13.70
2023-05-02T14:35:37.832Z,13.60
2023-05-02T14:37:40.618Z,13.70
2023-05-02T14:39:51.691Z,14.00
2023-05-02T14:41:56.279Z,14.30
2023-05-02T14:43:59.042Z,14.20
2023-05-02T14:46:02.700Z,14.10
2023-05-02T14:48:05.993Z,13.60
2023-05-02T14:50:09.559Z,14.00
2023-05-02T14:52:12.324Z,14.20
2023-05-02T14:54:16.692Z,13.50
2023-05-02T14:56:20.808Z,13.50
2023-05-02T14:58:23.512Z,13.40
2023-05-02T15:00:26.592Z,13.20
2023-05-02T15:02:29.339Z,13.50
2023-05-02T15:04:32.469Z,12.90
2023-05-02T15:06:36.343Z,13.20
2023-05-02T15:08:39.579Z,13.10
2023-05-02T15:10:42.378Z,13.50
2023-05-02T15:12:50.661Z,13.40
2023-05-02T15:14:53.392Z,13.70
2023-05-02T15:16:56.171Z,13.80
2023-05-02T15:18:59.019Z,14.30
2023-05-02T15:21:01.824Z,14.90
2023-05-02T15:23:05.060Z,15.70
2023-05-02T15:25:08.971Z,14.80
2023-05-02T15:27:11.948Z,14.50
2023-05-02T15:29:16.156Z,13.80
2023-05-02T15:31:18.893Z,13.70
2023-05-02T15:33:21.650Z,13.80
2023-05-02T15:35:24.704Z,13.40
2023-05-02T15:37:27.513Z,13.40
2023-05-02T15:39:30.269Z,13.60
2023-05-02T15:41:33.248Z,13.70
2023-05-02T15:43:37.305Z,13.40
2023-05-02T15:45:41.347Z,13.60
2023-05-02T15:47:44.111Z,13.70
2023-05-02T15:49:47.360Z,13.00
2023-05-02T15:51:50.129Z,13.00
2023-05-02T15:53:52.970Z,12.80
2023-05-02T15:55:55.781Z,13.30
2023-05-02T15:57:58.496Z,13.50
2023-05-02T16:00:01.477Z,13.40
2023-05-02T16:02:06.322Z,13.60
2023-05-02T16:04:09.922Z,13.60
2023-05-02T16:06:12.804Z,13.70
2023-05-02T16:08:15.545Z,13.40
2023-05-02T16:10:18.292Z,13.50
2023-05-02T16:12:21.010Z,13.30
2023-05-02T16:14:26.123Z,13.40
2023-05-02T16:16:29.259Z,13.30
2023-05-02T16:18:34.632Z,13.00
2023-05-02T16:20:37.613Z,13.50
2023-05-02T16:22:40.369Z,13.20
2023-05-02T16:24:43.154Z,13.10
2023-05-02T16:26:46.675Z,13.10
2023-05-02T16:28:49.484Z,13.40
2023-05-02T16:30:52.495Z,13.30
2023-05-02T16:32:55.603Z,13.60
2023-05-02T16:34:59.701Z,13.30
2023-05-02T16:37:03.853Z,13.40
2023-05-02T16:39:06.761Z,13.50
2023-05-02T16:41:10.248Z,13.10
2023-05-02T16:43:12.980Z,13.10
2023-05-02T16:45:16.046Z,13.00
2023-05-02T16:47:18.956Z,13.10
2023-05-02T16:49:21.712Z,12.90
2023-05-02T16:51:25.812Z,13.10
2023-05-02T16:53:28.614Z,13.40
2023-05-02T16:55:31.407Z,13.30
2023-05-02T16:57:34.139Z,13.10
2023-05-02T16:59:37.086Z,13.40
2023-05-02T17:01:40.159Z,13.50
2023-05-02T17:03:42.970Z,14.30
2023-05-02T17:05:45.701Z,14.50
2023-05-02T17:07:49.792Z,13.90
2023-05-02T17:09:52.850Z,14.00
2023-05-02T17:11:56.052Z,13.50
2023-05-02T17:13:59.045Z,13.30
2023-05-02T17:16:02.423Z,13.30
2023-05-02T17:18:05.294Z,13.40
2023-05-02T17:20:09.992Z,12.90
2023-05-02T17:22:14.630Z,13.40
2023-05-02T17:24:18.695Z,13.00
2023-05-02T17:26:22.065Z,13.50
2023-05-02T17:28:28.041Z,13.50
2023-05-02T17:30:32.113Z,13.30
2023-05-02T17:32:37.351Z,13.40
2023-05-02T17:34:40.109Z,13.40
2023-05-02T17:36:43.639Z,13.50
2023-05-02T17:38:46.403Z,13.30
2023-05-02T17:40:50.456Z,13.30
2023-05-02T17:42:53.319Z,13.30
2023-05-02T17:44:56.230Z,13.30
2023-05-02T17:46:59.013Z,13.30
2023-05-02T17:49:01.823Z,13.20
2023-05-02T17:51:05.561Z,13.40
2023-05-02T17:53:09.279Z,13.40
2023-05-02T17:55:12.067Z,13.30
2023-05-02T17:57:16.148Z,13.20
2023-05-02T17:59:18.929Z,12.80
2023-05-02T18:01:21.668Z,12.90
2023-05-02T18:03:24.722Z,12.70
2023-05-02T18:05:28.038Z,12.80
2023-05-02T18:07:31.503Z,12.60
2023-05-02T18:09:34.288Z,12.40
2023-05-02T18:11:37.556Z,12.20
2023-05-02T18:13:41.629Z,12.70
2023-05-02T18:15:44.421Z,12.70
2023-05-02T18:17:47.203Z,12.70
2023-05-02T18:19:50.390Z,12.50
2023-05-02T18:21:53.491Z,12.50
2023-05-02T18:23:56.820Z,12.40
2023-05-02T18:25:59.817Z,12.40
2023-05-02T18:28:02.728Z,12.10
2023-05-02T18:30:08.267Z,12.50
2023-05-02T18:32:11.042Z,12.60
2023-05-02T18:34:13.782Z,12.80
2023-05-02T18:36:19.387Z,12.80
2023-05-02T18:38:22.401Z,12.70
2023-05-02T18:40:25.300Z,12.50
2023-05-02T18:42:28.088Z,12.10
2023-05-02T18:44:31.169Z,12.30
2023-05-02T18:46:35.297Z,12.50
2023-05-02T18:48:38.152Z,12.60
2023-05-02T18:50:41.623Z,12.50
2023-05-02T18:52:44.445Z,12.60
2023-05-02T18:54:47.178Z,12.70
2023-05-02T18:56:50.430Z,12.70
2023-05-02T18:58:56.388Z,12.40
2023-05-02T19:00:59.173Z,12.40
2023-05-02T19:03:03.807Z,12.40
2023-05-02T19:05:07.222Z,12.30
2023-05-02T19:07:10.048Z,12.30
2023-05-02T19:09:13.525Z,12.30
2023-05-02T19:11:16.357Z,12.10
2023-05-02T19:13:19.291Z,12.00
2023-05-02T19:15:23.867Z,11.90
2023-05-02T19:17:26.799Z,11.70
2023-05-02T19:19:31.148Z,11.90
2023-05-02T19:21:34.193Z,12.00
2023-05-02T19:23:37.547Z,12.10
2023-05-02T19:25:40.458Z,12.00
2023-05-02T19:27:45.204Z,12.00
2023-05-02T19:29:48.016Z,11.90
2023-05-02T19:31:50.877Z,11.90
2023-05-02T19:33:54.760Z,12.00
2023-05-02T19:35:58.825Z,12.10
2023-05-02T19:38:01.738Z,12.10
2023-05-02T19:40:05.121Z,11.90
2023-05-02T19:42:08.096Z,11.80
2023-05-02T19:44:10.886Z,11.80
2023-05-02T19:46:15.278Z,11.80
2023-05-02T19:48:18.308Z,11.80
2023-05-02T19:50:21.076Z,11.90
2023-05-02T19:52:25.379Z,11.90
2023-05-02T19:54:28.109Z,11.80
2023-05-02T19:56:30.989Z,11.80
2023-05-02T19:58:33.968Z,11.70
2023-05-02T20:00:37.376Z,11.60
2023-05-02T20:02:40.310Z,11.60
2023-05-02T20:04:43.179Z,11.60
2023-05-02T20:06:46.151Z,11.40
2023-05-02T20:08:51.044Z,11.30
2023-05-02T20:10:53.942Z,10.90
2023-05-02T20:12:56.747Z,10.70
2023-05-02T20:14:59.488Z,10.70
2023-05-02T20:17:02.398Z,10.60
2023-05-02T20:19:05.361Z,10.40
2023-05-02T20:21:08.466Z,10.30
2023-05-02T20:23:11.257Z,10.20
2023-05-02T20:25:15.984Z,10.00
2023-05-02T20:27:18.757Z,9.90
2023-05-02T20:29:21.529Z,10.00
2023-05-02T20:31:24.426Z,9.90
2023-05-02T20:33:36.862Z,10.00
2023-05-02T20:35:44.595Z,9.90
2023-05-02T20:37:48.565Z,10.00
2023-05-02T20:39:51.355Z,9.90
2023-05-02T20:41:58.366Z,9.90
2023-05-02T20:44:02.702Z,9.70
2023-05-02T20:46:09.987Z,9.70
2023-05-02T20:48:16.279Z,9.80
2023-05-02T20:50:19.270Z,9.80
2023-05-02T20:52:22.250Z,9.90
2023-05-02T20:54:25.107Z,9.80
2023-05-02T20:56:27.917Z,9.60
2023-05-02T20:58:32.228Z,9.60
2023-05-02T21:00:35.004Z,9.80
2023-05-02T21:02:37.889Z,9.70
2023-05-02T21:04:42.071Z,9.70
2023-05-02T21:06:44.982Z,9.50
2023-05-02T21:08:48.263Z,9.50
2023-05-02T21:10:51.417Z,9.50
2023-05-02T21:12:54.368Z,9.20
2023-05-02T21:14:58.394Z,9.20
2023-05-02T21:17:01.128Z,9.40
2023-05-02T21:19:04.001Z,9.60
2023-05-02T21:21:06.796Z,9.80
2023-05-02T21:23:11.184Z,9.90
2023-05-02T21:25:14.060Z,10.00
2023-05-02T21:27:17.070Z,10.00
2023-05-02T21:29:19.864Z,10.20
2023-05-02T21:31:24.080Z,10.00
2023-05-02T21:33:26.847Z,10.20
2023-05-02T21:35:33.913Z,10.10
2023-05-02T21:37:36.700Z,10.10
2023-05-02T21:39:39.872Z,10.40
2023-05-02T21:41:42.683Z,10.60
2023-05-02T21:43:45.682Z,10.60
2023-05-02T21:45:49.834Z,10.70
2023-05-02T21:47:54.237Z,10.80
2023-05-02T21:49:57.463Z,10.80
2023-05-02T21:52:00.270Z,10.80
2023-05-02T21:54:02.987Z,10.80
2023-05-02T21:56:06.791Z,10.90
2023-05-02T21:58:12.262Z,10.60
2023-05-02T22:00:15.835Z,10.60
2023-05-02T22:02:18.714Z,10.70
2023-05-02T22:04:23.773Z,10.80
2023-05-02T22:06:26.788Z,10.90
2023-05-02T22:08:29.584Z,11.00
2023-05-02T22:10:32.350Z,10.90
2023-05-02T22:12:35.190Z,10.90
2023-05-02T22:14:45.353Z,10.70
2023-05-02T22:16:48.799Z,10.70
2023-05-02T22:18:51.557Z,10.90
2023-05-02T22:20:57.278Z,11.00
2023-05-02T22:23:00.030Z,11.00
2023-05-02T22:25:03.134Z,11.00
2023-05-02T22:27:07.489Z,11.00
2023-05-02T22:29:10.168Z,11.00
2023-05-02T22:31:14.160Z,11.00
2023-05-02T22:33:17.194Z,11.00
2023-05-02T22:35:19.951Z,10.90
2023-05-02T22:37:24.071Z,10.70
2023-05-02T22:39:27.701Z,10.70
2023-05-02T22:41:31.820Z,10.70
2023-05-02T22:43:34.540Z,10.80
2023-05-02T22:45:38.330Z,10.80
2023-05-02T22:47:41.359Z,10.70
2023-05-02T22:49:44.566Z,10.70
2023-05-02T22:51:48.016Z,10.70
2023-05-02T22:53:54.073Z,10.80
2023-05-02T22:55:56.887Z,10.60
2023-05-02T22:57:59.593Z,10.50
2023-05-02T23:00:02.433Z,10.60
2023-05-02T23:02:05.524Z,10.50
2023-05-02T23:04:08.705Z,10.60
2023-05-02T23:06:11.783Z,10.60
2023-05-02T23:08:14.982Z,10.40
2023-05-02T23:10:19.062Z,10.40
2023-05-02T23:12:21.789Z,10.40
2023-05-02T23:14:24.575Z,10.40
2023-05-02T23:16:27.522Z,10.30
2023-05-02T23:18:30.321Z,9.80
2023-05-02T23:20:33.996Z,9.70
2023-05-02T23:22:37.629Z,9.50
2023-05-02T23:24:40.482Z,9.40
2023-05-02T23:26:44.561Z,9.10
2023-05-02T23:28:47.376Z,9.10
2023-05-02T23:30:50.293Z,9.00
2023-05-02T23:32:53.209Z,9.00
2023-05-02T23:34:56.296Z,8.90
2023-05-02T23:36:59.108Z,9.00
2023-05-02T23:39:02.249Z,9.10
2023-05-02T23:41:05.208Z,9.10
2023-05-02T23:43:09.867Z,9.10
2023-05-02T23:45:13.267Z,9.10
2023-05-02T23:47:16.030Z,9.00
2023-05-02T23:49:18.807Z,8.90
2023-05-02T23:51:21.585Z,8.70
2023-05-02T23:53:24.318Z,8.60
2023-05-02T23:55:27.063Z,8.70
2023-05-02T23:57:30.477Z,8.70
2023-05-02T23:59:34.520Z,8.50
